createdAt,value
2023-02-15T00:01:05.338Z,6.59
2023-02-15T00:03:36.183Z,6.73
2023-02-15T00:06:06.451Z,6.68
2023-02-15T00:08:37.413Z,6.67
2023-02-15T00:11:07.617Z,6.68
2023-02-15T00:13:38.248Z,6.8
2023-02-15T00:16:09.151Z,6.91
2023-02-15T00:18:39.283Z,6.92
2023-02-15T00:21:09.940Z,6.93
2023-02-15T00:23:40.171Z,6.94
2023-02-15T00:26:10.678Z,7.14
2023-02-15T00:28:41.078Z,7.06
2023-02-15T00:31:11.605Z,6.96
2023-02-15T00:33:41.985Z,6.86
2023-02-15T00:36:12.931Z,6.82
2023-02-15T00:38:43.357Z,6.79
2023-02-15T00:41:13.902Z,6.8
2023-02-15T00:43:44.324Z,6.88
2023-02-15T00:46:14.646Z,6.81
2023-02-15T00:48:44.895Z,6.63
2023-02-15T00:51:15.696Z,6.77
2023-02-15T00:53:46.307Z,7.36
2023-02-15T00:56:16.457Z,7.46
2023-02-15T00:58:47.173Z,7.35
2023-02-15T01:01:17.916Z,7.58
2023-02-15T01:03:48.537Z,7.78
2023-02-15T01:06:19.154Z,7.92
2023-02-15T01:08:50.126Z,7.93
2023-02-15T01:11:20.514Z,7.94
2023-02-15T01:13:51.192Z,8.07
2023-02-15T01:16:21.336Z,7.86
2023-02-15T01:18:52.008Z,7.81
2023-02-15T01:21:22.344Z,8.04
2023-02-15T01:23:53.079Z,8.27
2023-02-15T01:26:23.109Z,8.4
2023-02-15T01:28:53.509Z,7.97
2023-02-15T01:31:24.263Z,7.51
2023-02-15T01:33:54.257Z,8.71
2023-02-15T01:36:24.417Z,7.3
2023-02-15T01:38:54.829Z,7.07
2023-02-15T01:41:25.507Z,6.79
2023-02-15T01:43:55.710Z,6.9
2023-02-15T01:46:25.857Z,7.1
2023-02-15T01:48:56.457Z,7.14
2023-02-15T01:51:26.817Z,7.16
2023-02-15T01:53:57.479Z,7.17
2023-02-15T01:56:27.610Z,7.11
2023-02-15T01:58:58.382Z,7.08
2023-02-15T02:01:28.609Z,6.7
2023-02-15T02:03:58.535Z,6.99
2023-02-15T02:06:28.546Z,7.22
2023-02-15T02:08:58.767Z,7.3
2023-02-15T02:11:29.155Z,7.24
2023-02-15T02:14:00.118Z,7.46
2023-02-15T02:16:30.865Z,7.56
2023-02-15T02:19:01.658Z,7.27
2023-02-15T02:21:32.496Z,7.49
2023-02-15T02:24:02.938Z,7.29
2023-02-15T02:26:33.358Z,6.99
2023-02-15T02:29:03.370Z,6.9
2023-02-15T02:31:33.941Z,6.94
2023-02-15T02:34:04.027Z,7.1
2023-02-15T02:36:34.709Z,7.03
2023-02-15T02:39:05.144Z,6.85
2023-02-15T02:41:35.992Z,6.77
2023-02-15T02:44:05.949Z,6.69
2023-02-15T02:46:36.703Z,6.59
2023-02-15T02:49:06.806Z,6.5
2023-02-15T02:51:37.724Z,6.49
2023-02-15T02:54:08.310Z,6.49
2023-02-15T02:56:38.880Z,6.42
2023-02-15T02:59:08.889Z,6.48
2023-02-15T03:01:39.405Z,6.57
2023-02-15T03:04:09.415Z,6.45
2023-02-15T03:06:39.668Z,6.46
2023-02-15T03:09:10.111Z,6.36
2023-02-15T03:11:40.636Z,6.39
2023-02-15T03:14:11.127Z,6.69
2023-02-15T03:16:41.702Z,6.72
2023-02-15T03:19:11.633Z,6.64
2023-02-15T03:21:42.324Z,7.42
2023-02-15T03:24:12.638Z,6.77
2023-02-15T03:26:43.492Z,6.6
2023-02-15T03:29:13.832Z,6.5
2023-02-15T03:31:44.192Z,7.2
2023-02-15T03:34:14.603Z,7.46
2023-02-15T03:36:45.119Z,7.9
2023-02-15T03:39:15.878Z,7.8
2023-02-15T03:41:46.559Z,7.43
2023-02-15T03:44:17.125Z,7.15
2023-02-15T03:46:47.380Z,7.1
2023-02-15T03:49:17.688Z,7.23
2023-02-15T03:51:47.750Z,7.23
2023-02-15T03:54:18.063Z,7.13
2023-02-15T03:56:48.100Z,7.02
2023-02-15T03:59:18.297Z,6.73
2023-02-15T04:01:48.308Z,6.55
2023-02-15T04:04:18.859Z,6.64
2023-02-15T04:06:49.727Z,6.69
2023-02-15T04:09:20.538Z,6.83
2023-02-15T04:11:50.825Z,6.99
2023-02-15T04:14:20.884Z,7.15
2023-02-15T04:16:51.390Z,7.12
2023-02-15T04:19:21.882Z,7.13
2023-02-15T04:21:52.080Z,7.13
2023-02-15T04:24:22.702Z,6.96
2023-02-15T04:26:52.884Z,6.94
2023-02-15T04:29:22.999Z,6.95
2023-02-15T04:31:53.160Z,6.97
2023-02-15T04:34:23.589Z,6.88
2023-02-15T04:36:53.936Z,6.78
2023-02-15T04:39:24.865Z,6.68
2023-02-15T04:41:55.712Z,6.59
2023-02-15T04:44:26.056Z,6.75
2023-02-15T04:46:56.486Z,6.67
2023-02-15T04:49:27.289Z,6.69
2023-02-15T04:51:57.830Z,6.68
2023-02-15T04:54:28.374Z,7.82
2023-02-15T04:56:58.666Z,6.94
2023-02-15T04:59:29.267Z,6.84
2023-02-15T05:01:59.469Z,6.74
2023-02-15T05:04:30.256Z,6.78
2023-02-15T05:07:00.903Z,6.79
2023-02-15T05:09:30.823Z,6.75
2023-02-15T05:12:01.532Z,6.69
2023-02-15T05:14:31.732Z,6.71
2023-02-15T05:17:02.099Z,6.72
2023-02-15T05:19:32.501Z,6.73
2023-02-15T05:22:02.905Z,6.66
2023-02-15T05:24:33.154Z,6.74
2023-02-15T05:27:03.554Z,6.68
2023-02-15T05:29:34.291Z,6.66
2023-02-15T05:32:05.235Z,6.59
2023-02-15T05:34:35.499Z,6.68
2023-02-15T05:37:05.901Z,6.85
2023-02-15T05:39:36.115Z,6.77
2023-02-15T05:42:07.004Z,6.88
2023-02-15T05:44:37.790Z,6.8
2023-02-15T05:47:08.063Z,6.74
2023-02-15T05:49:38.636Z,7.03
2023-02-15T05:52:09.113Z,7.11
2023-02-15T05:54:39.933Z,6.77
2023-02-15T05:57:10.164Z,6.68
2023-02-15T05:59:40.100Z,6.62
2023-02-15T06:02:10.940Z,6.48
2023-02-15T06:04:41.245Z,6.59
2023-02-15T06:07:13.209Z,6.58
2023-02-15T06:09:41.685Z,6.59
2023-02-15T06:12:12.284Z,6.55
2023-02-15T06:14:42.731Z,6.67
2023-02-15T06:17:13.090Z,7.74
2023-02-15T06:19:43.159Z,6.94
2023-02-15T06:22:13.374Z,6.71
2023-02-15T06:24:43.608Z,6.64
2023-02-15T06:27:14.283Z,6.77
2023-02-15T06:29:44.438Z,6.94
2023-02-15T06:32:14.991Z,6.92
2023-02-15T06:34:46.293Z,6.86
2023-02-15T06:37:16.225Z,6.86
2023-02-15T06:39:47.041Z,6.97
2023-02-15T06:42:17.922Z,7.04
2023-02-15T06:44:48.503Z,7.39
2023-02-15T06:47:18.942Z,7.45
2023-02-15T06:49:49.182Z,7.72
2023-02-15T06:52:19.551Z,8.21
2023-02-15T06:54:50.227Z,8.33
2023-02-15T06:57:20.290Z,8.61
2023-02-15T06:59:51.190Z,8.68
2023-02-15T07:02:21.897Z,8.79
2023-02-15T07:04:52.213Z,8.72
2023-02-15T07:07:22.558Z,8.73
2023-02-15T07:09:52.954Z,8.65
2023-02-15T07:12:23.343Z,8.54
2023-02-15T07:14:54.070Z,8.44
2023-02-15T07:17:35.613Z,8.31
2023-02-15T07:19:54.292Z,8.25
2023-02-15T07:22:25.060Z,7.92
2023-02-15T07:24:55.397Z,7.84
2023-02-15T07:27:25.815Z,7.67
2023-02-15T07:29:56.484Z,7.7
2023-02-15T07:32:26.567Z,7.46
2023-02-15T07:34:57.178Z,7.23
2023-02-15T07:37:28.044Z,6.94
2023-02-15T07:39:58.059Z,7
2023-02-15T07:42:28.856Z,7
2023-02-15T07:44:59.120Z,7.17
2023-02-15T07:47:29.353Z,7.3
2023-02-15T07:50:00.172Z,7.32
2023-02-15T07:52:31.030Z,8.25
2023-02-15T07:55:01.166Z,7.53
2023-02-15T07:57:31.990Z,7.12
2023-02-15T08:00:02.669Z,7.13
2023-02-15T08:02:32.795Z,7.31
2023-02-15T08:05:02.874Z,7.6
2023-02-15T08:07:33.217Z,7.68
2023-02-15T08:10:03.967Z,7.93
2023-02-15T08:12:34.139Z,7.91
2023-02-15T08:15:04.193Z,8.25
2023-02-15T08:17:34.427Z,8.08
2023-02-15T08:20:05.253Z,7.88
2023-02-15T08:22:35.494Z,7.96
2023-02-15T08:25:05.783Z,7.94
2023-02-15T08:27:36.299Z,7.68
2023-02-15T08:30:06.699Z,7.77
2023-02-15T08:32:36.580Z,7.81
2023-02-15T08:35:07.356Z,7.96
2023-02-15T08:37:37.448Z,7.83
2023-02-15T08:40:08.190Z,7.8
2023-02-15T08:42:38.346Z,7.77
2023-02-15T08:45:08.375Z,7.76
2023-02-15T08:47:39.011Z,7.74
2023-02-15T08:50:09.033Z,7.76
2023-02-15T08:52:39.410Z,7.82
2023-02-15T08:55:10.152Z,7.84
2023-02-15T08:57:40.786Z,7.83
2023-02-15T09:00:10.928Z,7.93
2023-02-15T09:02:41.905Z,7.98
2023-02-15T09:05:11.918Z,7.88
2023-02-15T09:07:42.448Z,8.04
2023-02-15T09:10:13.030Z,8.14
2023-02-15T09:12:43.843Z,8.1
2023-02-15T09:15:13.958Z,8.08
2023-02-15T09:17:44.208Z,8.06
2023-02-15T09:20:14.421Z,8.06
2023-02-15T09:22:44.853Z,8.05
2023-02-15T09:25:15.496Z,8.06
2023-02-15T09:27:46.084Z,8.09
2023-02-15T09:30:16.811Z,8.07
2023-02-15T09:32:47.187Z,8.01
2023-02-15T09:35:17.355Z,8.03
2023-02-15T09:37:47.607Z,8.13
2023-02-15T09:40:17.597Z,8.1
2023-02-15T09:42:47.685Z,8.17
2023-02-15T09:45:18.905Z,8.14
2023-02-15T09:47:48.910Z,8.79
2023-02-15T09:50:18.985Z,8.13
2023-02-15T09:52:49.480Z,8.15
2023-02-15T09:55:19.760Z,7.88
2023-02-15T09:57:49.934Z,8.17
2023-02-15T10:00:20.338Z,7.99
2023-02-15T10:02:50.550Z,8.56
2023-02-15T10:05:20.977Z,8.62
2023-02-15T10:07:51.110Z,8.44
2023-02-15T10:10:21.611Z,8.2
2023-02-15T10:12:51.737Z,8.54
2023-02-15T10:15:21.734Z,8.43
2023-02-15T10:17:52.088Z,8.43
2023-02-15T10:20:22.867Z,8.11
2023-02-15T10:22:53.656Z,8.01
2023-02-15T10:25:24.043Z,8.21
2023-02-15T10:27:54.138Z,7.86
2023-02-15T10:30:25.072Z,7.24
2023-02-15T10:32:55.072Z,6.03
2023-02-15T10:35:25.241Z,5.9
2023-02-15T10:37:56.159Z,6.15
2023-02-15T10:40:26.561Z,6.23
2023-02-15T10:42:56.683Z,5.96
2023-02-15T10:45:27.307Z,5.89
2023-02-15T10:47:58.115Z,5.74
2023-02-15T10:50:28.744Z,5.38
2023-02-15T10:52:58.756Z,5.46
2023-02-15T10:55:29.127Z,5.98
2023-02-15T10:58:01.372Z,5.76
2023-02-15T11:00:30.791Z,5.93
2023-02-15T11:03:00.910Z,5.89
2023-02-15T11:05:31.172Z,5.76
2023-02-15T11:08:01.656Z,6.02
2023-02-15T11:10:32.600Z,6.07
2023-02-15T11:13:03.354Z,5.86
2023-02-15T11:15:33.687Z,5.74
2023-02-15T11:18:04.072Z,5.75
2023-02-15T11:20:34.253Z,5.68
2023-02-15T11:23:04.840Z,5.86
2023-02-15T11:25:35.487Z,5.71
2023-02-15T11:28:06.461Z,5.71
2023-02-15T11:30:37.075Z,5.64
2023-02-15T11:33:07.546Z,5.62
2023-02-15T11:35:37.605Z,5.74
2023-02-15T11:38:08.311Z,5.73
2023-02-15T11:40:38.736Z,5.59
2023-02-15T11:43:09.058Z,5.62
2023-02-15T11:45:39.138Z,5.74
2023-02-15T11:48:09.314Z,5.87
2023-02-15T11:50:39.720Z,5.94
2023-02-15T11:53:09.683Z,5.79
2023-02-15T11:55:40.092Z,5.52
2023-02-15T11:58:10.724Z,5.56
2023-02-15T12:00:40.791Z,5.57
2023-02-15T12:03:11.060Z,5.54
2023-02-15T12:05:41.344Z,5.6
2023-02-15T12:08:11.986Z,5.46
2023-02-15T12:10:41.906Z,5.12
2023-02-15T12:13:12.883Z,5.27
2023-02-15T12:15:42.781Z,5.28
2023-02-15T12:18:13.015Z,5.28
2023-02-15T12:20:43.546Z,5.19
2023-02-15T12:23:13.632Z,5.28
2023-02-15T12:25:44.395Z,5.23
2023-02-15T12:28:15.137Z,5.37
2023-02-15T12:30:45.747Z,5.1
2023-02-15T12:33:16.578Z,4.81
2023-02-15T12:35:46.917Z,4.94
2023-02-15T12:38:17.552Z,4.72
2023-02-15T12:40:47.514Z,5.04
2023-02-15T12:43:18.384Z,4.71
2023-02-15T12:45:48.478Z,4.53
2023-02-15T12:48:18.870Z,4.75
2023-02-15T12:50:54.714Z,4.63
2023-02-15T12:53:19.721Z,4.49
2023-02-15T12:55:49.930Z,4.73
2023-02-15T12:58:20.476Z,4.55
2023-02-15T13:00:50.980Z,4.65
2023-02-15T13:03:21.235Z,4.7
2023-02-15T13:05:51.819Z,4.87
2023-02-15T13:08:22.563Z,4.45
2023-02-15T13:10:53.403Z,4.4
2023-02-15T13:13:23.758Z,4.56
2023-02-15T13:15:53.759Z,4.78
2023-02-15T13:18:24.592Z,4.58
2023-02-15T13:20:54.491Z,4.58
2023-02-15T13:23:25.341Z,4.65
2023-02-15T13:25:56.060Z,4.77
2023-02-15T13:28:26.416Z,5.27
2023-02-15T13:30:56.864Z,4.65
2023-02-15T13:33:27.298Z,4.67
2023-02-15T13:35:57.253Z,4.75
2023-02-15T13:38:27.403Z,4.79
2023-02-15T13:40:58.221Z,4.9
2023-02-15T13:43:28.871Z,4.79
2023-02-15T13:46:00.141Z,4.56
2023-02-15T13:48:45.651Z,4.72
2023-02-15T13:51:00.012Z,5.06
2023-02-15T13:53:30.181Z,4.89
2023-02-15T13:56:00.511Z,4.76
2023-02-15T13:58:30.854Z,4.54
2023-02-15T14:01:01.535Z,4.47
2023-02-15T14:03:31.736Z,4.23
2023-02-15T14:06:02.461Z,4.42
2023-02-15T14:08:33.231Z,4.49
2023-02-15T14:11:03.619Z,4.51
2023-02-15T14:13:35.370Z,4.46
2023-02-15T14:16:04.052Z,4.9
2023-02-15T14:18:34.215Z,4.68
2023-02-15T14:21:05.406Z,4.49
2023-02-15T14:23:35.458Z,4.29
2023-02-15T14:26:05.568Z,4.25
2023-02-15T14:28:35.695Z,4.73
2023-02-15T14:31:06.875Z,4.88
2023-02-15T14:33:37.064Z,4.65
2023-02-15T14:36:07.563Z,4.92
2023-02-15T14:38:37.751Z,4.72
2023-02-15T14:41:08.158Z,4.6
2023-02-15T14:43:38.716Z,4.58
2023-02-15T14:46:09.405Z,4.53
2023-02-15T14:48:39.954Z,4.5
2023-02-15T14:51:10.022Z,4.55
2023-02-15T14:53:40.064Z,4.69
2023-02-15T14:56:10.902Z,4.48
2023-02-15T14:58:41.487Z,4.64
2023-02-15T15:01:12.302Z,4.71
2023-02-15T15:03:43.048Z,4.61
2023-02-15T15:06:13.438Z,4.45
2023-02-15T15:08:44.183Z,4.79
2023-02-15T15:11:14.311Z,4.79
2023-02-15T15:13:44.455Z,4.7
2023-02-15T15:16:14.852Z,4.83
2023-02-15T15:18:45.006Z,4.94
2023-02-15T15:21:15.212Z,4.82
2023-02-15T15:23:46.072Z,4.86
2023-02-15T15:26:16.176Z,4.75
2023-02-15T15:28:46.268Z,4.71
2023-02-15T15:31:17.092Z,5.25
2023-02-15T15:33:47.539Z,5.04
2023-02-15T15:36:18.077Z,5.06
2023-02-15T15:38:48.245Z,5.11
2023-02-15T15:41:19.159Z,5.11
2023-02-15T15:43:49.521Z,5.21
2023-02-15T15:46:20.528Z,5.38
2023-02-15T15:48:51.217Z,5.21
2023-02-15T15:51:21.416Z,5.1
2023-02-15T15:53:51.518Z,5.1
2023-02-15T15:56:21.882Z,5.27
2023-02-15T15:58:52.042Z,5.33
2023-02-15T16:01:22.750Z,5.37
2023-02-15T16:03:53.346Z,5.5
2023-02-15T16:06:23.530Z,5.57
2023-02-15T16:08:53.544Z,5.51
2023-02-15T16:11:23.828Z,5.63
2023-02-15T16:13:54.110Z,6.05
2023-02-15T16:16:25.138Z,5.82
2023-02-15T16:18:55.433Z,5.64
2023-02-15T16:21:25.979Z,5.67
2023-02-15T16:23:56.165Z,5.77
2023-02-15T16:26:26.585Z,5.78
2023-02-15T16:28:56.762Z,5.65
2023-02-15T16:31:27.188Z,5.66
2023-02-15T16:33:57.412Z,5.52
2023-02-15T16:36:27.948Z,5.62
2023-02-15T16:38:58.529Z,5.56
2023-02-15T16:41:28.854Z,5.51
2023-02-15T16:43:58.997Z,5.7
2023-02-15T16:46:29.650Z,5.59
2023-02-15T16:49:00.233Z,5.66
2023-02-15T16:51:30.843Z,5.86
2023-02-15T16:54:01.216Z,5.73
2023-02-15T16:56:31.702Z,5.67
2023-02-15T16:59:02.219Z,5.72
2023-02-15T17:01:32.577Z,5.62
2023-02-15T17:04:02.498Z,5.58
2023-02-15T17:06:33.132Z,5.41
2023-02-15T17:09:03.328Z,5.26
2023-02-15T17:11:33.428Z,5.15
2023-02-15T17:14:04.164Z,5.28
2023-02-15T17:16:34.693Z,5.23
2023-02-15T17:19:05.428Z,5.25
2023-02-15T17:21:35.636Z,5.31
2023-02-15T17:24:06.233Z,5.37
2023-02-15T17:26:36.616Z,5.44
2023-02-15T17:29:06.685Z,5.32
2023-02-15T17:31:36.757Z,5.21
2023-02-15T17:34:07.342Z,5.27
2023-02-15T17:36:37.936Z,5.41
2023-02-15T17:39:09.013Z,5.53
2023-02-15T17:41:38.758Z,5.56
2023-02-15T17:44:09.167Z,5.46
2023-02-15T17:46:39.538Z,5.26
2023-02-15T17:49:09.975Z,5.5
2023-02-15T17:51:40.825Z,5.42
2023-02-15T17:54:11.152Z,5.54
2023-02-15T17:56:41.479Z,5.54
2023-02-15T17:59:12.265Z,5.61
2023-02-15T18:01:43.284Z,5.42
2023-02-15T18:04:14.059Z,5.3
2023-02-15T18:06:44.949Z,5.3
2023-02-15T18:09:14.876Z,5.37
2023-02-15T18:11:45.197Z,5.61
2023-02-15T18:14:15.725Z,5.49
2023-02-15T18:16:46.705Z,5.55
2023-02-15T18:19:17.097Z,5.62
2023-02-15T18:21:47.043Z,5.62
2023-02-15T18:24:17.143Z,5.62
2023-02-15T18:26:47.652Z,5.57
2023-02-15T18:29:18.128Z,5.46
2023-02-15T18:31:49.066Z,5.27
2023-02-15T18:34:19.126Z,5.2
2023-02-15T18:36:49.748Z,5.28
2023-02-15T18:39:19.908Z,5.64
2023-02-15T18:41:50.519Z,5.51
2023-02-15T18:44:20.709Z,5.39
2023-02-15T18:46:51.473Z,5.47
2023-02-15T18:49:22.203Z,5.36
2023-02-15T18:51:52.768Z,5.29
2023-02-15T18:54:23.426Z,5.13
2023-02-15T18:56:53.733Z,5.14
2023-02-15T18:59:24.544Z,5.14
2023-02-15T19:01:55.201Z,5.14
2023-02-15T19:04:26.157Z,5.26
2023-02-15T19:06:55.921Z,5.14
2023-02-15T19:09:26.002Z,5.09
2023-02-15T19:11:56.740Z,5.03
2023-02-15T19:14:27.483Z,5.16
2023-02-15T19:16:57.628Z,5.28
2023-02-15T19:19:27.779Z,5.34
2023-02-15T19:21:58.465Z,5.34
2023-02-15T19:24:29.078Z,5.28
2023-02-15T19:26:59.966Z,5.34
2023-02-15T19:29:30.647Z,5.4
2023-02-15T19:32:01.440Z,5.53
2023-02-15T19:34:31.901Z,5.41
2023-02-15T19:37:02.668Z,5.35
2023-02-15T19:39:32.796Z,5.3
2023-02-15T19:42:03.534Z,5.3
2023-02-15T19:44:34.275Z,5.37
2023-02-15T19:47:05.281Z,5.31
2023-02-15T19:49:36.121Z,5.31
2023-02-15T19:52:06.709Z,5.25
2023-02-15T19:54:37.084Z,5.19
2023-02-15T19:57:07.517Z,5.19
2023-02-15T19:59:37.778Z,5.19
2023-02-15T20:02:08.606Z,5.19
2023-02-15T20:04:39.121Z,5.26
2023-02-15T20:07:09.750Z,5.32
2023-02-15T20:09:40.351Z,5.2
2023-02-15T20:12:11.124Z,5.21
2023-02-15T20:14:41.756Z,5.35
2023-02-15T20:17:12.477Z,5.35
2023-02-15T20:19:42.578Z,5.35
2023-02-15T20:22:12.810Z,5.35
2023-02-15T20:24:43.245Z,5.37
2023-02-15T20:27:14.045Z,5.36
2023-02-15T20:29:44.799Z,5.36
2023-02-15T20:32:15.114Z,5.38
2023-02-15T20:34:45.104Z,5.38
2023-02-15T20:37:15.950Z,5.33
2023-02-15T20:39:46.022Z,5.34
2023-02-15T20:42:16.357Z,5.4
2023-02-15T20:44:46.862Z,5.47
2023-02-15T20:47:16.992Z,5.61
2023-02-15T20:49:47.426Z,5.44
2023-02-15T20:52:17.820Z,5.58
2023-02-15T20:54:48.359Z,5.66
2023-02-15T20:57:19.106Z,5.6
2023-02-15T20:59:49.642Z,5.55
2023-02-15T21:02:20.462Z,5.56
2023-02-15T21:04:50.441Z,5.67
2023-02-15T21:07:20.801Z,5.62
2023-02-15T21:09:51.220Z,5.58
2023-02-15T21:12:21.579Z,5.59
2023-02-15T21:14:52.081Z,5.61
2023-02-15T21:17:22.393Z,5.59
2023-02-15T21:19:53.170Z,5.6
2023-02-15T21:22:23.963Z,5.54
2023-02-15T21:24:54.464Z,5.53
2023-02-15T21:27:24.748Z,5.46
2023-02-15T21:29:54.974Z,5.54
2023-02-15T21:32:25.488Z,5.53
2023-02-15T21:34:55.516Z,5.48
2023-02-15T21:37:25.541Z,5.47
2023-02-15T21:39:55.828Z,5.49
2023-02-15T21:42:26.606Z,5.55
2023-02-15T21:44:56.793Z,5.48
2023-02-15T21:47:27.038Z,5.47
2023-02-15T21:49:57.302Z,5.48
2023-02-15T21:52:27.778Z,5.68
2023-02-15T21:54:57.904Z,5.68
2023-02-15T21:57:28.761Z,5.7
2023-02-15T21:59:58.716Z,5.67
2023-02-15T22:02:28.849Z,5.64
2023-02-15T22:04:58.942Z,5.63
2023-02-15T22:07:29.113Z,5.67
2023-02-15T22:09:59.709Z,5.61
2023-02-15T22:12:30.410Z,5.69
2023-02-15T22:15:00.711Z,5.79
2023-02-15T22:17:31.610Z,6.11
2023-02-15T22:20:02.359Z,5.77
2023-02-15T22:22:32.784Z,5.73
2023-02-15T22:25:03.724Z,5.69
2023-02-15T22:27:33.893Z,5.69
2023-02-15T22:30:04.638Z,5.6
2023-02-15T22:32:34.867Z,5.62
2023-02-15T22:35:05.630Z,5.63
2023-02-15T22:37:36.153Z,5.77
2023-02-15T22:40:06.756Z,5.74
2023-02-15T22:42:37.292Z,5.7
2023-02-15T22:45:08.231Z,5.73
2023-02-15T22:47:38.325Z,5.79
2023-02-15T22:50:09.025Z,5.82
2023-02-15T22:52:39.676Z,5.74
2023-02-15T22:55:09.849Z,5.82
2023-02-15T22:57:40.402Z,5.77
2023-02-15T23:00:10.798Z,5.75
2023-02-15T23:02:41.567Z,5.74
2023-02-15T23:05:11.751Z,5.68
2023-02-15T23:07:42.541Z,5.67
2023-02-15T23:10:13.220Z,5.62
2023-02-15T23:12:43.580Z,5.61
2023-02-15T23:15:14.229Z,5.64
2023-02-15T23:17:44.810Z,5.54
2023-02-15T23:20:15.713Z,5.54
2023-02-15T23:22:46.016Z,5.56
2023-02-15T23:25:16.206Z,5.48
2023-02-15T23:27:46.624Z,5.48
2023-02-15T23:30:17.053Z,5.46
2023-02-15T23:32:47.102Z,5.45
2023-02-15T23:35:17.436Z,5.44
2023-02-15T23:37:47.983Z,5.37
2023-02-15T23:40:18.109Z,5.38
2023-02-15T23:42:48.350Z,5.38
2023-02-15T23:45:19.193Z,5.31
2023-02-15T23:47:49.489Z,5.35
2023-02-15T23:50:19.796Z,5.29
2023-02-15T23:52:49.995Z,5.34
2023-02-15T23:55:20.591Z,5.34
2023-02-15T23:57:51.328Z,5.38
